Time;durP1;ratioP1;P1;durP2;ratioP2;P2;SDS_P1;SDS_P2;PMS_P1;PMS_P2;Temp;Humidity;BMP_temperature;BMP_pressure;BME280_temperature;BME280_humidity;BME280_pressure;Samples;Min_cycle;Max_cycle;Signal;HPM_P1;HPM_P2
2022/04/15 00:01:35;;;;;;;4.00;2.80;;;;;;;10.31;100.00;61905.53;5072410;28;20257;-72
2022/04/15 00:04:03;;;;;;;4.07;2.50;;;;;;;10.24;100.00;61900.06;5072124;28;20196;-71
2022/04/15 00:06:30;;;;;;;3.57;2.70;;;;;;;10.23;100.00;61896.97;5071910;28;20201;-71
2022/04/15 00:08:56;;;;;;;4.80;3.10;;;;;;;10.21;100.00;61892.28;5085623;28;20255;-72
2022/04/15 00:11:25;;;;;;;6.63;2.80;;;;;;;10.16;100.00;61889.47;5092217;28;20231;-71
2022/04/15 00:13:52;;;;;;;5.67;3.20;;;;;;;10.13;100.00;61883.72;5090970;28;20585;-72
2022/04/15 00:16:19;;;;;;;8.33;3.30;;;;;;;10.09;100.00;61882.50;5091895;28;20276;-72
2022/04/15 00:18:46;;;;;;;6.23;3.10;;;;;;;10.10;100.00;61881.03;5079491;28;20204;-73
2022/04/15 00:21:12;;;;;;;7.00;2.93;;;;;;;9.94;100.00;61866.44;5071547;28;20204;-71
2022/04/15 00:23:40;;;;;;;6.50;3.33;;;;;;;9.84;100.00;61852.66;5071590;28;20671;-72
2022/04/15 00:26:07;;;;;;;4.13;2.83;;;;;;;9.84;100.00;61852.66;5071739;28;20261;-71
2022/04/15 00:28:35;;;;;;;5.67;3.27;;;;;;;9.82;100.00;61853.56;5081695;28;20207;-73
2022/04/15 00:31:02;;;;;;;8.90;3.27;;;;;;;9.81;100.00;61849.97;5091607;28;20299;-72
2022/04/15 00:33:29;;;;;;;8.00;3.30;;;;;;;9.53;100.00;61820.00;5092021;28;20199;-72
2022/04/15 00:35:56;;;;;;;4.23;2.90;;;;;;;9.69;100.00;61834.59;5091122;28;20199;-72
2022/04/15 00:38:23;;;;;;;8.40;3.03;;;;;;;9.56;100.00;61820.66;5082287;28;21052;-71
2022/04/15 00:40:50;;;;;;;5.43;3.30;;;;;;;9.52;100.00;61823.50;5071611;28;20204;-71
2022/04/15 00:43:16;;;;;;;5.30;3.20;;;;;;;9.38;100.00;61808.50;5071308;28;20192;-72
2022/04/15 00:45:44;;;;;;;7.90;3.30;;;;;;;9.54;100.00;61823.09;5076660;28;20236;-72
2022/04/15 00:48:12;;;;;;;7.67;3.40;;;;;;;9.54;100.00;61820.53;5084957;28;20667;-71
2022/04/15 00:50:39;;;;;;;10.20;3.77;;;;;;;9.47;100.00;61813.03;5071585;28;20228;-72
2022/04/15 00:53:10;;;;;;;8.33;3.80;;;;;;;9.43;100.00;61811.31;5075112;28;20192;-72
2022/04/15 00:55:38;;;;;;;6.07;3.60;;;;;;;9.34;100.00;61800.22;5089416;28;20272;-71
2022/04/15 00:58:06;;;;;;;6.43;3.60;;;;;;;9.29;100.00;61799.41;5075813;28;20679;-72
2022/04/15 01:00:35;;;;;;;6.43;3.70;;;;;;;8.83;100.00;61745.13;5070923;28;20655;-72
2022/04/15 01:03:05;;;;;;;6.80;3.67;;;;;;;9.25;100.00;61790.03;5087238;28;20445;-71
2022/04/15 01:05:32;;;;;;;10.80;4.00;;;;;;;9.19;100.00;61784.16;5091589;28;20204;-71
2022/04/15 01:08:02;;;;;;;8.83;4.00;;;;;;;9.07;100.00;61773.34;5090317;28;20651;-71
2022/04/15 01:10:29;;;;;;;7.83;3.60;;;;;;;8.40;100.00;61699.69;5090851;28;20196;-71
2022/04/15 01:12:59;;;;;;;7.83;4.30;;;;;;;8.88;100.00;61748.47;5090861;28;20200;-72
2022/04/15 01:15:27;;;;;;;4.93;3.60;;;;;;;8.74;100.00;61736.03;5088130;28;20212;-71
2022/04/15 01:17:55;;;;;;;8.67;3.83;;;;;;;8.64;100.00;61722.25;5073668;28;20277;-72
2022/04/15 01:20:23;;;;;;;11.67;4.20;;;;;;;8.83;100.00;61745.66;5090714;28;20871;-71
2022/04/15 01:22:57;;;;;;;6.73;3.87;;;;;;;8.80;100.00;61747.53;5090790;28;20199;-72
2022/04/15 01:25:24;;;;;;;6.00;3.90;;;;;;;8.80;100.00;61741.91;5086479;28;20212;-71
2022/04/15 01:27:51;;;;;;;8.53;3.80;;;;;;;8.56;100.00;61711.16;5079824;28;20257;-71
2022/04/15 01:30:20;;;;;;;7.97;3.63;;;;;;;8.60;100.00;61721.06;5090849;28;21021;-71
2022/04/15 01:32:48;;;;;;;8.00;4.00;;;;;;;8.75;100.00;61741.66;5089037;28;20546;-71
2022/04/15 01:35:16;;;;;;;7.43;4.30;;;;;;;8.72;100.00;61733.34;5091203;28;20231;-72
2022/04/15 01:37:44;;;;;;;8.50;4.17;;;;;;;8.70;100.00;61736.28;5088950;28;20477;-72
2022/04/15 01:40:14;;;;;;;6.63;3.77;;;;;;;8.69;100.00;61730.69;5073928;28;20223;-71
2022/04/15 01:42:42;;;;;;;8.20;3.80;;;;;;;8.57;100.00;61722.94;5070306;28;20201;-73
2022/04/15 01:45:10;;;;;;;7.00;4.03;;;;;;;8.49;100.00;61709.31;5070547;28;20208;-72
2022/04/15 01:47:37;;;;;;;9.00;3.87;;;;;;;8.45;100.00;61705.03;5070496;28;20447;-72
2022/04/15 01:50:05;;;;;;;5.03;3.60;;;;;;;7.74;100.00;61632.22;5081086;28;20207;-72
2022/04/15 01:52:32;;;;;;;5.87;3.70;;;;;;;8.37;100.00;61699.03;5093024;28;20484;-71
2022/04/15 01:54:59;;;;;;;6.20;3.90;;;;;;;8.16;100.00;61676.53;5087468;28;20517;-71
2022/04/15 01:57:27;;;;;;;7.47;3.80;;;;;;;8.19;100.00;61682.81;5074305;28;20450;-72
2022/04/15 01:59:54;;;;;;;6.93;3.80;;;;;;;8.26;100.00;61682.19;5080733;28;20446;-72
2022/04/15 02:02:23;;;;;;;6.30;3.93;;;;;;;8.28;100.00;61689.38;5094436;28;20800;-71
2022/04/15 02:04:49;;;;;;;9.93;3.63;;;;;;;8.02;100.00;61661.59;5094247;28;20195;-71
2022/04/15 02:07:16;;;;;;;4.40;3.23;;;;;;;8.01;100.00;61658.00;5093666;28;20550;-72
2022/04/15 02:09:43;;;;;;;3.70;2.77;;;;;;;7.42;100.00;61590.97;5088944;28;20906;-72
2022/04/15 02:12:11;;;;;;;5.53;3.03;;;;;;;7.82;100.00;61637.69;5073534;28;21057;-72
2022/04/15 02:14:39;;;;;;;7.40;3.60;;;;;;;7.94;100.00;61650.50;5073811;28;20527;-73
2022/04/15 02:17:06;;;;;;;6.90;3.37;;;;;;;7.91;100.00;61649.84;5072580;28;20449;-73
2022/04/15 02:19:33;;;;;;;7.47;3.23;;;;;;;7.81;100.00;61636.63;5076896;28;20453;-72
2022/04/15 02:21:59;;;;;;;7.30;3.77;;;;;;;7.80;100.00;61635.53;5094138;28;20549;-71
2022/04/15 02:24:26;;;;;;;5.63;3.90;;;;;;;7.73;100.00;61628.06;5093953;28;20434;-72
2022/04/15 02:26:53;;;;;;;6.60;3.50;;;;;;;7.57;100.00;61614.56;5093925;28;20555;-71
2022/04/15 02:29:20;;;;;;;6.70;3.67;;;;;;;7.55;100.00;61609.91;5092719;28;20517;-72
2022/04/15 02:31:48;;;;;;;4.40;3.40;;;;;;;7.62;100.00;61617.41;5073130;28;21080;-71
2022/04/15 02:34:15;;;;;;;4.30;3.40;;;;;;;7.62;100.00;61617.41;5072869;28;21020;-72
2022/04/15 02:36:41;;;;;;;5.57;3.43;;;;;;;7.55;100.00;61611.91;5093635;28;20502;-71
2022/04/15 02:39:11;;;;;;;7.60;3.50;;;;;;;7.51;100.00;61605.63;5093644;28;20438;-72
2022/04/15 02:41:39;;;;;;;6.20;4.27;;;;;;;7.53;100.00;61610.31;5093224;28;20541;-71
2022/04/15 02:44:07;;;;;;;28.50;11.07;;;;;;;7.46;100.00;61597.78;5093664;28;20438;-73
2022/04/15 02:46:36;;;;;;;23.00;10.90;;;;;;;7.33;100.00;61585.88;5093188;28;20507;-72
2022/04/15 02:49:05;;;;;;;9.20;5.80;;;;;;;7.28;100.00;61583.09;5093400;28;20457;-71
2022/04/15 02:51:32;;;;;;;9.70;5.43;;;;;;;7.08;100.00;61559.19;5073909;28;20954;-71
2022/04/15 02:53:59;;;;;;;10.13;5.37;;;;;;;7.07;100.00;61561.19;5073014;28;20520;-72
2022/04/15 02:56:26;;;;;;;7.10;4.73;;;;;;;7.10;100.00;61561.88;5073080;28;20477;-70
2022/04/15 02:58:53;;;;;;;11.17;5.07;;;;;;;7.15;100.00;61574.78;5083531;28;20808;-71
2022/04/15 03:01:21;;;;;;;10.83;5.23;;;;;;;6.96;100.00;61549.47;5078782;28;20441;-72
2022/04/15 03:03:48;;;;;;;10.00;5.23;;;;;;;6.94;100.00;61546.78;5094036;28;20437;-72
2022/04/15 03:06:16;;;;;;;11.67;5.17;;;;;;;6.61;100.00;61510.09;5090579;28;20454;-71
2022/04/15 03:08:42;;;;;;;9.20;4.93;;;;;;;6.35;100.00;61481.81;5072925;28;20443;-71
2022/04/15 03:11:09;;;;;;;10.90;5.10;;;;;;;6.34;100.00;61483.31;5087851;28;20502;-71
2022/04/15 03:13:36;;;;;;;7.77;4.70;;;;;;;6.48;100.00;61500.75;5093006;28;20438;-72
2022/04/15 03:16:03;;;;;;;12.13;5.40;;;;;;;6.63;100.00;61509.16;5092427;28;20465;-71
2022/04/15 03:18:30;;;;;;;8.87;5.40;;;;;;;6.62;100.00;61511.16;5092726;28;20452;-72
2022/04/15 03:20:57;;;;;;;16.57;8.07;;;;;;;6.57;100.00;61503.31;5078903;28;20451;-71
2022/04/15 03:23:25;;;;;;;21.57;9.03;;;;;;;6.58;100.00;61509.44;5072285;28;20512;-73
2022/04/15 03:25:52;;;;;;;19.17;7.73;;;;;;;6.57;100.00;61507.81;5072223;28;20879;-71
2022/04/15 03:28:19;;;;;;;15.37;6.63;;;;;;;6.47;100.00;61499.69;5072253;28;20443;-72
2022/04/15 03:30:46;;;;;;;16.57;7.77;;;;;;;6.37;100.00;61483.97;5083587;28;20468;-71
2022/04/15 03:33:12;;;;;;;10.53;5.77;;;;;;;6.52;100.00;61497.44;5092474;28;20858;-71
2022/04/15 03:35:39;;;;;;;12.77;6.37;;;;;;;6.47;100.00;61494.63;5092321;28;20465;-72
2022/04/15 03:38:06;;;;;;;10.27;4.80;;;;;;;6.00;100.00;61444.50;5092627;28;20449;-72
2022/04/15 03:40:34;;;;;;;15.40;4.73;;;;;;;6.72;100.00;61523.84;5082882;28;20470;-71
2022/04/15 03:43:03;;;;;;;18.17;4.90;;;;;;;6.69;100.00;61518.09;5072078;28;20484;-71
2022/04/15 03:45:30;;;;;;;6.57;3.67;;;;;;;6.76;100.00;61525.59;5072066;28;20450;-71
2022/04/15 03:47:57;;;;;;;7.77;3.87;;;;;;;6.70;100.00;61521.72;5072010;28;20451;-72
2022/04/15 03:50:24;;;;;;;9.70;3.87;;;;;;;6.59;100.00;61507.97;5079761;28;20449;-71
2022/04/15 03:52:52;;;;;;;9.20;3.67;;;;;;;6.59;100.00;61504.91;5091346;28;20485;-72
2022/04/15 03:55:21;;;;;;;6.33;3.50;;;;;;;6.59;100.00;61507.44;5090902;28;20473;-71
2022/04/15 03:57:50;;;;;;;10.73;4.00;;;;;;;6.50;100.00;61500.38;5089638;28;20867;-72
2022/04/15 04:00:19;;;;;;;7.37;3.63;;;;;;;6.51;100.00;61504.50;5085173;28;20500;-72
2022/04/15 04:02:47;;;;;;;5.27;3.43;;;;;;;6.61;100.00;61514.63;5087951;28;21019;-72
2022/04/15 04:05:15;;;;;;;11.00;3.80;;;;;;;6.61;100.00;61507.03;5091775;28;20503;-71
2022/04/15 04:07:42;;;;;;;5.60;3.73;;;;;;;6.60;100.00;61509.03;5092374;28;20437;-71
2022/04/15 04:10:10;;;;;;;8.20;3.67;;;;;;;6.69;100.00;61515.56;5090923;28;20457;-71
2022/04/15 04:12:38;;;;;;;7.70;3.97;;;;;;;6.41;100.00;61488.22;5090768;28;20556;-72
2022/04/15 04:15:08;;;;;;;23.60;4.87;;;;;;;6.08;100.00;61453.03;5090856;28;21002;-72
2022/04/15 04:17:35;;;;;;;5.53;3.40;;;;;;;6.61;100.00;61510.09;5091634;28;20446;-71
2022/04/15 04:20:03;;;;;;;5.90;3.63;;;;;;;6.53;100.00;61501.03;5087193;28;20453;-72
2022/04/15 04:22:31;;;;;;;11.63;3.63;;;;;;;6.65;100.00;61518.91;5071201;28;20568;-72
2022/04/15 04:24:58;;;;;;;8.87;4.20;;;;;;;5.67;100.00;61410.38;5071145;28;20941;-71
2022/04/15 04:27:25;;;;;;;5.60;3.70;;;;;;;6.72;100.00;61516.25;5071320;28;20447;-71
2022/04/15 04:29:52;;;;;;;6.27;3.67;;;;;;;6.81;100.00;61531.44;5071214;28;20443;-72
2022/04/15 04:32:21;;;;;;;7.63;3.83;;;;;;;6.89;100.00;61539.44;5071123;28;20482;-72
2022/04/15 04:34:48;;;;;;;9.33;4.67;;;;;;;6.27;100.00;61475.81;5070685;28;21081;-72
2022/04/15 04:37:15;;;;;;;14.50;4.43;;;;;;;7.08;100.00;61559.72;5071135;28;20483;-73
2022/04/15 04:39:42;;;;;;;8.37;4.37;;;;;;;6.66;100.00;61515.44;5071147;28;20527;-71
2022/04/15 04:42:09;;;;;;;26.50;5.73;;;;;;;7.35;100.00;61591.09;5091107;28;20959;-72
2022/04/15 04:44:38;;;;;;;27.57;6.80;;;;;;;6.91;100.00;61541.56;5091153;28;20510;-72
2022/04/15 04:47:07;;;;;;;23.30;6.93;;;;;;;7.63;100.00;61621.00;5091215;28;20855;-73
2022/04/15 04:49:35;;;;;;;25.60;7.90;;;;;;;6.97;100.00;61553.03;5091301;28;20487;-71
2022/04/15 04:52:02;;;;;;;19.40;7.43;;;;;;;6.81;100.00;61530.91;5071414;28;21093;-72
2022/04/15 04:54:30;;;;;;;31.37;8.10;;;;;;;7.37;100.00;61595.22;5070617;28;20516;-72
2022/04/15 04:56:57;;;;;;;48.97;11.47;;;;;;;7.71;100.00;61625.94;5070870;28;20446;-71
2022/04/15 04:59:25;;;;;;;37.17;10.13;;;;;;;7.79;100.00;61629.41;5070737;28;20446;-73
2022/04/15 05:01:52;;;;;;;39.17;10.50;;;;;;;7.65;100.00;61623.13;5087878;28;20510;-71
2022/04/15 05:04:19;;;;;;;34.10;9.70;;;;;;;7.61;100.00;61613.25;5080173;28;20482;-72
2022/04/15 05:06:47;;;;;;;37.23;9.97;;;;;;;7.69;100.00;61624.84;5070759;28;20500;-71
2022/04/15 05:09:15;;;;;;;36.30;9.20;;;;;;;7.87;100.00;61643.56;5070811;28;20442;-72
2022/04/15 05:11:42;;;;;;;21.80;9.07;;;;;;;7.99;100.00;61658.38;5071443;28;20834;-71
2022/04/15 05:14:09;;;;;;;38.70;12.17;;;;;;;8.19;100.00;61674.69;5070556;28;20508;-71
2022/04/15 05:16:36;;;;;;;28.10;11.67;;;;;;;8.34;100.00;61693.81;5084892;28;20465;-71
2022/04/15 05:19:03;;;;;;;30.87;11.10;;;;;;;8.60;100.00;61718.53;5090650;28;20567;-71
2022/04/15 05:21:30;;;;;;;31.47;11.03;;;;;;;8.73;100.00;61745.13;5076249;28;20459;-71
2022/04/15 05:23:58;;;;;;;26.77;10.57;;;;;;;8.84;100.00;61748.72;5071575;28;20496;-73
2022/04/15 05:26:25;;;;;;;32.47;9.93;;;;;;;9.06;100.00;61770.25;5093706;28;20203;-71
2022/04/15 05:28:53;;;;;;;38.50;11.43;;;;;;;9.31;100.00;61801.53;5094635;28;20257;-72
2022/04/15 05:31:20;;;;;;;33.97;10.03;;;;;;;9.32;100.00;61798.06;5083179;28;20455;-73
2022/04/15 05:33:47;;;;;;;32.63;10.30;;;;;;;9.71;100.00;61841.28;5074009;28;20297;-71
2022/04/15 05:36:14;;;;;;;40.27;10.40;;;;;;;10.06;100.00;61878.75;5086019;28;20877;-71
2022/04/15 05:38:41;;;;;;;27.87;8.03;;;;;;;10.13;100.00;61884.25;5094397;28;20654;-71
2022/04/15 05:41:09;;;;;;;30.90;9.33;;;;;;;10.55;100.00;61928.69;5082886;28;20639;-71
2022/04/15 05:43:37;;;;;;;22.97;9.33;;;;;;;11.00;100.00;61974.38;5074185;28;20199;-72
2022/04/15 05:46:04;;;;;;;22.00;8.60;;;;;;;11.31;100.00;62009.09;5074416;28;20239;-72
2022/04/15 05:48:31;;;;;;;29.83;9.50;;;;;;;11.66;100.00;62044.06;5073966;28;20253;-72
2022/04/15 05:50:58;;;;;;;13.47;7.23;;;;;;;11.94;100.00;62073.56;5074918;28;20254;-73
2022/04/15 05:53:25;;;;;;;18.97;9.07;;;;;;;12.04;100.00;62082.28;5073259;28;20281;-74
2022/04/15 05:55:51;;;;;;;17.67;8.07;;;;;;;12.13;100.00;62094.50;5073749;28;20729;-72
2022/04/15 05:58:20;;;;;;;17.27;8.90;;;;;;;12.52;100.00;62133.25;5074525;28;20200;-73
2022/04/15 06:00:47;;;;;;;18.33;7.83;;;;;;;12.79;100.00;62166.81;5072573;28;20204;-72
2022/04/15 06:03:14;;;;;;;19.30;8.63;;;;;;;12.88;100.00;62177.00;5092152;28;20276;-71
2022/04/15 06:05:41;;;;;;;18.50;9.20;;;;;;;12.86;100.00;62174.84;5073739;28;20269;-72
2022/04/15 06:08:08;;;;;;;21.93;8.20;;;;;;;13.18;100.00;62208.72;5073506;28;20270;-73
2022/04/15 06:10:35;;;;;;;22.87;9.27;;;;;;;13.09;100.00;62193.91;5089244;28;20681;-71
2022/04/15 06:13:04;;;;;;;35.10;10.07;;;;;;;13.50;100.00;62243.09;5073227;28;20236;-74
2022/04/15 06:15:34;;;;;;;24.27;8.70;;;;;;;13.39;100.00;62231.25;5074538;28;20269;-72
2022/04/15 06:18:02;;;;;;;26.57;9.50;;;;;;;12.71;100.00;62156.75;5073084;28;20208;-75
2022/04/15 06:20:29;;;;;;;21.97;8.83;;;;;;;13.36;100.00;62228.03;5088210;28;20208;-72
2022/04/15 06:22:57;;;;;;;18.93;8.23;;;;;;;13.52;100.00;62245.75;5078072;28;20216;-71
2022/04/15 06:25:23;;;;;;;26.90;7.83;;;;;;;14.02;99.33;62296.41;5073693;28;20196;-73
2022/04/15 06:27:51;;;;;;;17.53;7.20;;;;;;;14.30;92.71;62331.66;5073617;28;20255;-71
2022/04/15 06:30:20;;;;;;;15.27;7.00;;;;;;;14.22;90.96;62320.47;5087156;28;20238;-72
2022/04/15 06:32:48;;;;;;;16.23;6.73;;;;;;;14.52;89.23;62346.53;5074061;28;20228;-71
2022/04/15 06:35:15;;;;;;;20.50;8.00;;;;;;;14.69;90.34;62369.97;5071359;28;20232;-73
2022/04/15 06:37:42;;;;;;;15.30;7.03;;;;;;;14.94;89.61;62399.41;5071654;28;20596;-71
2022/04/15 06:40:10;;;;;;;13.73;7.50;;;;;;;14.83;89.76;62382.97;5073030;28;20273;-71
2022/04/15 06:42:37;;;;;;;20.83;8.27;;;;;;;14.84;92.71;62391.22;5073344;28;20270;-72
2022/04/15 06:45:05;;;;;;;16.50;8.13;;;;;;;14.75;95.34;62376.41;5072754;28;20204;-73
2022/04/15 06:47:31;;;;;;;23.33;8.40;;;;;;;14.99;96.96;62402.75;5073088;28;20196;-72
2022/04/15 06:49:59;;;;;;;18.70;8.57;;;;;;;15.31;93.78;62436.66;5073028;28;20200;-72
2022/04/15 06:52:26;;;;;;;24.40;7.60;;;;;;;15.22;88.53;62426.97;5072873;28;20201;-72
2022/04/15 06:54:53;;;;;;;14.93;7.43;;;;;;;15.52;86.58;62459.28;5073140;28;20261;-72
2022/04/15 06:57:21;;;;;;;16.20;7.37;;;;;;;14.78;84.26;62379.63;5072783;28;20632;-73
2022/04/15 06:59:48;;;;;;;21.07;6.80;;;;;;;14.95;86.88;62397.94;5072733;28;20200;-71
2022/04/15 07:02:15;;;;;;;22.83;7.27;;;;;;;15.48;83.94;62454.97;5084553;28;20199;-71
2022/04/15 07:04:42;;;;;;;12.40;6.23;;;;;;;15.31;80.10;62436.66;5093391;28;20617;-72
2022/04/15 07:07:10;;;;;;;12.30;6.80;;;;;;;15.48;81.37;62454.97;5094135;28;20277;-72
2022/04/15 07:09:37;;;;;;;15.97;6.83;;;;;;;15.65;79.72;62473.28;5094389;28;20249;-72
2022/04/15 07:12:05;;;;;;;15.03;6.60;;;;;;;16.17;79.11;62525.63;5094252;28;20272;-72
2022/04/15 07:14:33;;;;;;;21.47;7.03;;;;;;;16.45;77.46;62556.34;5093896;28;20231;-71
2022/04/15 07:16:59;;;;;;;16.03;6.83;;;;;;;16.86;71.48;62600.00;5094058;28;20196;-72
2022/04/15 07:19:27;;;;;;;14.67;6.07;;;;;;;16.91;68.64;62607.94;5095324;28;20261;-71
2022/04/15 07:21:53;;;;;;;12.57;5.63;;;;;;;16.44;67.44;62557.28;5099726;28;20222;-72
2022/04/15 07:24:22;;;;;;;13.23;6.20;;;;;;;16.83;66.97;62604.47;5094726;28;20199;-72
2022/04/15 07:26:49;;;;;;;12.50;5.60;;;;;;;16.68;65.42;62583.19;5093750;28;20207;-72
2022/04/15 07:29:16;;;;;;;28.77;6.40;;;;;;;16.97;66.67;62611.84;5093608;28;20304;-71
2022/04/15 07:31:43;;;;;;;17.23;6.80;;;;;;;17.26;65.00;62645.16;5093746;28;20249;-73
2022/04/15 07:34:09;;;;;;;14.47;6.10;;;;;;;17.42;62.68;62657.81;5094854;28;20247;-71
2022/04/15 07:36:48;;;;;;;16.03;6.40;;;;;;;17.63;60.66;62685.06;5093320;28;20731;-71
2022/04/15 07:39:15;;;;;;;14.27;6.00;;;;;;;17.64;61.13;62688.72;5093707;28;20211;-72
2022/04/15 07:41:45;;;;;;;13.07;5.73;;;;;;;18.05;62.45;62725.22;5093386;28;20253;-72
2022/04/15 07:44:12;;;;;;;11.37;5.53;;;;;;;17.66;58.80;62688.84;5092531;28;20207;-73
2022/04/15 07:46:40;;;;;;;15.63;5.40;;;;;;;18.45;56.83;62773.03;5091852;28;20204;-71
2022/04/15 07:49:08;;;;;;;21.67;6.33;;;;;;;18.18;57.78;62738.72;5091937;28;20192;-72
2022/04/15 07:51:36;;;;;;;14.00;5.00;;;;;;;18.35;56.26;62764.81;5091698;28;20249;-71
2022/04/15 07:54:03;;;;;;;19.10;6.27;;;;;;;18.38;53.55;62762.88;5091662;28;20280;-72
2022/04/15 07:56:30;;;;;;;14.20;5.37;;;;;;;18.34;57.57;62761.69;5092199;28;20723;-71
2022/04/15 07:58:58;;;;;;;15.07;5.80;;;;;;;18.59;54.89;62785.56;5091601;28;20662;-71
2022/04/15 08:01:27;;;;;;;18.80;5.90;;;;;;;18.45;55.46;62770.47;5091573;28;20662;-72
2022/04/15 08:03:55;;;;;;;12.87;5.20;;;;;;;17.64;53.58;62686.69;5091607;28;20282;-71
2022/04/15 08:06:23;;;;;;;14.57;5.03;;;;;;;17.76;55.09;62699.09;5091698;28;20206;-72
2022/04/15 08:08:54;;;;;;;14.60;5.63;;;;;;;18.20;53.76;62746.03;5091983;28;20199;-71
2022/04/15 08:11:20;;;;;;;14.43;5.63;;;;;;;17.84;54.28;62709.75;5091695;28;20282;-71
2022/04/15 08:13:48;;;;;;;9.93;5.23;;;;;;;18.14;54.65;62734.94;5091361;28;20545;-72
2022/04/15 08:16:16;;;;;;;15.83;4.63;;;;;;;18.71;54.21;62801.13;5091436;28;20230;-72
2022/04/15 08:18:43;;;;;;;11.43;5.13;;;;;;;19.12;53.07;62840.22;5091040;28;20256;-73
2022/04/15 08:21:10;;;;;;;15.33;5.03;;;;;;;19.41;50.74;62871.03;5091413;28;20252;-71
2022/04/15 08:23:37;;;;;;;8.37;4.30;;;;;;;18.80;46.05;62808.25;5091167;28;20200;-72
2022/04/15 08:26:04;;;;;;;10.30;4.30;;;;;;;19.07;48.07;62840.00;5091378;28;20259;-71
2022/04/15 08:28:32;;;;;;;9.57;4.60;;;;;;;18.82;51.75;62810.41;5091272;28;20257;-72
2022/04/15 08:30:59;;;;;;;9.97;3.90;;;;;;;19.19;46.98;62855.53;5089861;28;20688;-71
2022/04/15 08:33:28;;;;;;;6.70;4.10;;;;;;;19.15;47.88;62848.09;5091051;28;20272;-72
2022/04/15 08:35:54;;;;;;;8.37;3.93;;;;;;;19.41;47.05;62875.66;5091238;28;20665;-71
2022/04/15 08:38:21;;;;;;;9.50;4.10;;;;;;;19.53;45.44;62888.63;5091040;28;20203;-72
2022/04/15 08:40:51;;;;;;;11.07;3.57;;;;;;;19.85;45.37;62920.63;5091257;28;20203;-72
2022/04/15 08:43:17;;;;;;;5.93;3.87;;;;;;;20.06;43.47;62945.91;5091429;28;20200;-72
2022/04/15 08:45:47;;;;;;;6.80;3.53;;;;;;;19.84;43.72;62922.66;5091095;28;20249;-73
2022/04/15 08:48:15;;;;;;;13.37;4.47;;;;;;;19.41;44.42;62875.66;5090658;28;20642;-72
2022/04/15 08:50:43;;;;;;;15.80;5.00;;;;;;;20.06;45.17;62943.31;5090965;28;20203;-73
2022/04/15 08:53:10;;;;;;;12.33;4.60;;;;;;;20.23;45.59;62959.13;5090725;28;20651;-71
2022/04/15 08:55:37;;;;;;;15.20;4.70;;;;;;;20.53;44.94;62991.56;5091272;28;20248;-72
2022/04/15 08:58:04;;;;;;;12.57;5.03;;;;;;;20.57;45.66;62997.94;5091151;28;20199;-71
2022/04/15 09:00:32;;;;;;;10.90;4.87;;;;;;;20.81;47.05;63021.84;5096017;28;20207;-73
2022/04/15 09:02:59;;;;;;;10.57;4.70;;;;;;;20.79;44.65;63024.88;5097342;28;20210;-72
2022/04/15 09:05:29;;;;;;;15.97;4.50;;;;;;;20.58;45.49;63002.16;5097281;28;20244;-72
2022/04/15 09:08:05;;;;;;;22.70;6.53;;;;;;;20.78;46.06;63023.25;5097314;28;20199;-73
2022/04/15 09:10:33;;;;;;;9.90;4.70;;;;;;;20.95;43.74;63041.63;5097554;28;20205;-72
2022/04/15 09:13:00;;;;;;;15.47;4.67;;;;;;;20.58;44.49;62996.44;5097238;28;20282;-72
2022/04/15 09:15:27;;;;;;;10.60;3.90;;;;;;;20.50;44.81;62983.16;5098115;28;20215;-72
2022/04/15 09:17:54;;;;;;;11.53;4.67;;;;;;;21.05;42.78;63051.94;5097085;28;20199;-73
2022/04/15 09:20:23;;;;;;;9.77;3.77;;;;;;;21.02;43.62;63049.78;5096948;28;20633;-72
2022/04/15 09:22:55;;;;;;;9.07;3.67;;;;;;;21.45;44.05;63090.56;5096678;28;20202;-73
2022/04/15 09:25:27;;;;;;;9.63;3.93;;;;;;;21.27;43.39;63071.09;5097469;28;20203;-73
2022/04/15 09:27:56;;;;;;;9.57;4.00;;;;;;;22.05;43.62;63155.03;5097365;28;20196;-72
2022/04/15 09:30:33;;;;;;;9.20;3.90;;;;;;;22.27;44.01;63184.03;5098243;28;20626;-73
2022/04/15 09:33:01;;;;;;;8.47;4.00;;;;;;;22.33;44.11;63185.34;5097428;28;20295;-72
2022/04/15 09:35:28;;;;;;;12.77;3.80;;;;;;;22.56;41.53;63215.47;5097672;28;20231;-73
2022/04/15 09:38:03;;;;;;;11.07;3.80;;;;;;;21.94;41.02;63137.91;5096947;28;20203;-71
2022/04/15 09:40:35;;;;;;;9.93;3.40;;;;;;;22.40;43.04;63192.94;5097276;28;20198;-72
2022/04/15 09:43:04;;;;;;;4.20;3.00;;;;;;;22.50;39.91;63208.94;5097084;28;20200;-73
2022/04/15 09:45:34;;;;;;;5.60;3.40;;;;;;;22.80;40.60;63237.81;5097048;28;20203;-72
2022/04/15 09:48:03;;;;;;;10.63;3.67;;;;;;;22.58;40.36;63217.09;5097165;28;20293;-72
2022/04/15 09:50:31;;;;;;;8.37;3.80;;;;;;;23.14;39.12;63274.66;5097512;28;20650;-72
2022/04/15 09:53:09;;;;;;;4.80;3.33;;;;;;;23.42;38.86;63312.84;5097099;28;20581;-71
2022/04/15 09:55:39;;;;;;;13.03;3.57;;;;;;;23.11;37.28;63269.34;5097304;28;20199;-72
2022/04/15 09:58:11;;;;;;;8.37;3.27;;;;;;;23.00;38.77;63262.09;5097353;28;20199;-72
2022/04/15 10:00:38;;;;;;;5.93;3.30;;;;;;;23.47;38.60;63313.06;5097148;28;20683;-73
2022/04/15 10:03:09;;;;;;;10.33;3.90;;;;;;;23.46;37.52;63312.50;5096936;28;20276;-73
2022/04/15 10:05:38;;;;;;;9.03;3.20;;;;;;;23.35;38.15;63298.00;5097287;28;20196;-72
2022/04/15 10:08:06;;;;;;;9.40;3.50;;;;;;;23.53;38.90;63319.56;5097187;28;20203;-72
2022/04/15 10:10:33;;;;;;;7.13;3.83;;;;;;;23.76;38.56;63347.13;5095520;28;20245;-72
2022/04/15 10:13:04;;;;;;;5.00;3.43;;;;;;;24.26;36.01;63398.78;5094021;28;20275;-73
2022/04/15 10:15:32;;;;;;;5.87;3.57;;;;;;;24.35;35.40;63410.06;5093884;28;20701;-72
2022/04/15 10:18:01;;;;;;;3.90;3.17;;;;;;;24.86;36.50;63460.22;5093875;28;20193;-73
2022/04/15 10:20:29;;;;;;;8.80;4.17;;;;;;;25.02;34.92;63480.19;5093824;28;20661;-73
2022/04/15 10:23:00;;;;;;;11.90;3.23;;;;;;;24.70;34.87;63445.44;5094083;28;20202;-72
2022/04/15 10:25:28;;;;;;;10.90;3.40;;;;;;;25.46;34.60;63528.00;5093526;28;20727;-72
2022/04/15 10:28:06;;;;;;;7.90;3.10;;;;;;;24.75;33.72;63446.22;5093397;28;20192;-73
2022/04/15 10:30:33;;;;;;;5.73;3.13;;;;;;;24.70;33.51;63446.00;5093227;28;20253;-73
2022/04/15 10:33:00;;;;;;;8.60;3.20;;;;;;;25.04;33.92;63480.31;5093252;28;20252;-73
2022/04/15 10:35:28;;;;;;;5.50;3.43;;;;;;;25.54;34.98;63536.69;5093864;28;20238;-73
2022/04/15 10:37:58;;;;;;;8.03;3.33;;;;;;;25.83;33.56;63565.59;5093509;28;20253;-72
2022/04/15 10:40:28;;;;;;;14.07;3.20;;;;;;;26.38;32.18;63626.94;5093515;28;20207;-73
2022/04/15 10:43:03;;;;;;;6.10;3.30;;;;;;;25.77;32.21;63561.16;5093268;28;20212;-72
2022/04/15 10:45:35;;;;;;;6.70;3.23;;;;;;;25.67;31.78;63550.28;5093249;28;20211;-73
2022/04/15 10:48:04;;;;;;;7.20;3.63;;;;;;;25.69;31.56;63547.78;5093300;28;20192;-75
2022/04/15 10:50:33;;;;;;;6.80;3.60;;;;;;;25.94;31.99;63580.16;5091813;28;20209;-72
2022/04/15 10:53:30;;;;;;;9.63;3.53;;;;;;;25.62;32.06;63544.84;5092781;28;20200;-72
2022/04/15 10:56:08;;;;;;;9.47;3.43;;;;;;;26.22;31.91;63609.53;5093001;28;20266;-73
2022/04/15 11:01:33;;;;;;;7.77;3.80;;;;;;;26.98;32.52;63689.56;5092604;28;20710;-73
2022/04/15 11:04:05;;;;;;;7.97;3.77;;;;;;;26.69;31.62;63661.19;5092628;28;20200;-74
2022/04/15 11:06:32;;;;;;;9.37;3.70;;;;;;;26.21;30.10;63608.44;5092856;28;20204;-73
2022/04/15 11:09:14;;;;;;;6.63;3.50;;;;;;;26.50;30.81;63637.88;5093162;28;20199;-73
2022/04/15 11:11:42;;;;;;;10.50;3.97;;;;;;;26.84;30.41;63676.97;5092807;28;20200;-74
2022/04/15 11:14:14;;;;;;;12.80;4.27;;;;;;;26.36;30.43;63625.28;5092734;28;20324;-74
2022/04/15 11:16:44;;;;;;;7.20;3.63;;;;;;;27.08;30.88;63702.53;5092593;28;20773;-74
2022/04/15 11:19:14;;;;;;;8.67;3.43;;;;;;;27.34;30.21;63728.75;5092539;28;20631;-72
2022/04/15 11:21:41;;;;;;;15.00;4.00;;;;;;;27.40;29.75;63737.91;5092216;28;20250;-74
2022/04/15 11:24:09;;;;;;;7.33;3.70;;;;;;;27.37;29.53;63739.88;5092042;28;20569;-72
2022/04/15 11:26:38;;;;;;;14.00;4.10;;;;;;;27.21;29.00;63716.66;5092425;28;20196;-73
2022/04/15 11:29:06;;;;;;;13.20;4.13;;;;;;;27.31;30.15;63727.53;5092237;28;20199;-72
2022/04/15 11:31:38;;;;;;;19.67;5.03;;;;;;;25.37;29.90;63518.22;5091265;28;20665;-74
2022/04/15 11:34:08;;;;;;;6.73;3.47;;;;;;;27.49;28.35;63747.13;5092357;28;20239;-73